createdAt,value
2019-04-22T00:02:35.260Z,97609.56
2019-04-22T00:05:13.149Z,97607.98
2019-04-22T00:08:03.519Z,97609.39
2019-04-22T00:10:39.713Z,97607.44
2019-04-22T00:13:19.947Z,97606.25
2019-04-22T00:15:41.809Z,97602.81
2019-04-22T00:18:26.670Z,97599.34
2019-04-22T00:20:58.121Z,97604.84
2019-04-22T00:23:37.032Z,97599.97
2019-04-22T00:26:09.324Z,97597.09
2019-04-22T00:28:43.796Z,97594.39
2019-04-22T00:31:27.124Z,97594.41
2019-04-22T00:34:06.220Z,97594.68
2019-04-22T00:36:37.532Z,97591.95
2019-04-22T00:39:18.429Z,97591.81
2019-04-22T00:41:50.866Z,97591.22
2019-04-22T00:44:25.496Z,97589.86
2019-04-22T00:46:59.593Z,97590.11
2019-04-22T00:52:22.342Z,97583.73
2019-04-22T00:54:38.002Z,97585.34
2019-04-22T00:57:08.756Z,97581.50
2019-04-22T00:59:50.840Z,97581.56
2019-04-22T01:02:23.646Z,97582.73
2019-04-22T01:04:55.995Z,97585.52
2019-04-22T01:07:23.723Z,97584.14
2019-04-22T01:10:07.801Z,97582.55
2019-04-22T01:12:39.636Z,97584.94
2019-04-22T01:15:14.831Z,97578.47
2019-04-22T01:17:46.679Z,97573.40
2019-04-22T01:20:52.369Z,97578.05
2019-04-22T01:22:56.273Z,97577.25
2019-04-22T01:25:23.681Z,97577.53
2019-04-22T01:27:54.693Z,97576.46
2019-04-22T01:30:25.627Z,97577.31
2019-04-22T01:32:52.074Z,97571.69
2019-04-22T01:35:37.505Z,97572.76
2019-04-22T01:38:13.269Z,97574.94
2019-04-22T01:41:02.789Z,97575.14
2019-04-22T01:43:37.437Z,97568.83
2019-04-22T01:46:08.465Z,97569.72
2019-04-22T01:48:39.389Z,97563.44
2019-04-22T01:51:04.838Z,97561.20
2019-04-22T01:53:53.125Z,97560.97
2019-04-22T01:56:24.487Z,97561.91
2019-04-22T01:58:44.089Z,97559.45
2019-04-22T02:01:34.968Z,97556.97
2019-04-22T02:04:00.905Z,97549.11
2019-04-22T02:06:40.670Z,97545.33
2019-04-22T02:09:17.421Z,97544.22
2019-04-22T02:11:46.636Z,97542.77
2019-04-22T02:14:20.752Z,97547.28
2019-04-22T02:20:32.945Z,97534.95
2019-04-22T02:21:56.585Z,97534.52
2019-04-22T02:24:35.307Z,97527.20
2019-04-22T02:27:14.116Z,97527.31
2019-04-22T02:29:44.337Z,97524.67
2019-04-22T02:32:27.654Z,97525.48
2019-04-22T02:35:01.602Z,97519.34
2019-04-22T02:37:22.872Z,97520.06
2019-04-22T02:42:24.241Z,97517.31
2019-04-22T02:44:58.635Z,97512.41
2019-04-22T02:47:35.984Z,97507.81
2019-04-22T02:50:12.668Z,97503.64
2019-04-22T02:52:47.320Z,97509.00
2019-04-22T02:58:12.596Z,97506.59
2019-04-22T03:00:51.956Z,97501.28
2019-04-22T03:05:53.331Z,97495.87
2019-04-22T03:08:25.314Z,97495.23
2019-04-22T03:13:38.288Z,97491.34
2019-04-22T03:16:07.686Z,97485.95
2019-04-22T03:18:53.662Z,97483.38
2019-04-22T03:24:06.062Z,97484.41
2019-04-22T03:26:27.452Z,97477.19
2019-04-22T03:28:51.155Z,97476.36
2019-04-22T03:42:09.808Z,97471.84
2019-04-22T03:44:54.627Z,97470.63
2019-04-22T03:47:32.064Z,97463.97
2019-04-22T03:50:06.110Z,97461.30
2019-04-22T04:00:20.816Z,97462.17
2019-04-22T04:05:34.008Z,97460.38
2019-04-22T04:08:12.652Z,97455.19
2019-04-22T04:13:10.244Z,97449.03
2019-04-22T04:15:53.321Z,97455.02
2019-04-22T04:18:11.329Z,97452.32
2019-04-22T04:23:30.907Z,97449.71
2019-04-22T04:25:54.273Z,97446.66
2019-04-22T04:31:09.981Z,97449.89
2019-04-22T04:36:08.758Z,97444.30
2019-04-22T04:39:03.029Z,97449.08
2019-04-22T04:41:26.656Z,97448.72
2019-04-22T04:44:03.715Z,97442.56
2019-04-22T04:49:16.553Z,97445.48
2019-04-22T04:51:37.722Z,97441.35
2019-04-22T04:54:28.798Z,97441.95
2019-04-22T04:56:56.599Z,97435.35
2019-04-22T05:01:55.879Z,97435.22
2019-04-22T05:04:40.902Z,97440.14
2019-04-22T05:07:09.347Z,97434.77
2019-04-22T05:09:35.999Z,97433.70
2019-04-22T05:12:26.661Z,97436.72
2019-04-22T05:14:44.722Z,97434.46
2019-04-22T05:17:18.532Z,97431.14
2019-04-22T05:19:50.261Z,97431.41
2019-04-22T05:22:28.315Z,97432.10
2019-04-22T05:25:00.174Z,97436.55
2019-04-22T05:27:37.737Z,97436.86
2019-04-22T05:30:23.522Z,97434.53
2019-04-22T05:32:43.026Z,97424.13
2019-04-22T05:35:20.739Z,97424.72
2019-04-22T05:37:59.512Z,97421.91
2019-04-22T05:43:05.049Z,97420.33
2019-04-22T05:45:33.094Z,97414.32
2019-04-22T05:48:15.811Z,97418.09
2019-04-22T05:50:48.563Z,97415.67
2019-04-22T05:53:14.946Z,97415.48
2019-04-22T05:58:22.992Z,97413.73
2019-04-22T06:03:46.484Z,97416.69
2019-04-22T06:09:02.874Z,97416.12
2019-04-22T06:11:31.249Z,97413.39
2019-04-22T06:14:04.457Z,97407.59
2019-04-22T06:16:44.315Z,97408.08
2019-04-22T06:19:18.501Z,97404.31
2019-04-22T06:21:48.059Z,97407.03
2019-04-22T06:24:49.421Z,97401.98
2019-04-22T06:29:30.170Z,97401.28
2019-04-22T06:32:24.688Z,97409.02
2019-04-22T06:34:43.153Z,97393.87
2019-04-22T06:37:17.491Z,97395.08
2019-04-22T06:39:46.650Z,97387.02
2019-04-22T06:45:02.774Z,97380.78
2019-04-22T06:47:43.918Z,97384.91
2019-04-22T06:50:09.433Z,97380.99
2019-04-22T06:52:50.277Z,97379.86
2019-04-22T06:55:21.142Z,97378.61
2019-04-22T06:57:53.039Z,97385.41
2019-04-22T07:00:24.769Z,97374.39
2019-04-22T07:03:26.924Z,97375.84
2019-04-22T07:05:32.812Z,97374.69
2019-04-22T07:08:30.345Z,97365.45
2019-04-22T07:13:21.855Z,97360.22
2019-04-22T07:23:41.925Z,97350.14
2019-04-22T07:26:04.393Z,97348.99
2019-04-22T07:28:38.049Z,97348.78
2019-04-22T07:31:29.003Z,97345.99
2019-04-22T07:34:13.380Z,97344.00
2019-04-22T07:39:01.942Z,97335.09
2019-04-22T07:41:34.441Z,97328.73
2019-04-22T07:44:26.529Z,97325.59
2019-04-22T07:46:54.704Z,97322.45
2019-04-22T07:49:22.051Z,97322.81
2019-04-22T07:51:49.499Z,97321.09
2019-04-22T07:54:25.918Z,97317.90
2019-04-22T07:57:08.696Z,97318.22
2019-04-22T07:59:40.386Z,97313.00
2019-04-22T08:02:14.575Z,97314.13
2019-04-22T08:05:03.991Z,97304.30
2019-04-22T08:07:27.981Z,97300.06
2019-04-22T08:12:36.200Z,97294.81
2019-04-22T08:15:10.674Z,97288.16
2019-04-22T08:20:16.704Z,97286.19
2019-04-22T08:22:52.204Z,97276.77
2019-04-22T08:25:17.996Z,97272.63
2019-04-22T08:28:01.653Z,97272.19
2019-04-22T08:30:35.237Z,97269.48
2019-04-22T08:33:11.142Z,97273.71
2019-04-22T08:35:52.151Z,97272.58
2019-04-22T08:38:13.053Z,97267.34
2019-04-22T08:41:17.784Z,97260.62
2019-04-22T08:43:52.398Z,97261.55
2019-04-22T08:46:30.172Z,97254.77
2019-04-22T08:48:54.260Z,97252.22
2019-04-22T08:56:37.629Z,97237.20
2019-04-22T09:01:41.949Z,97225.28
2019-04-22T09:04:14.625Z,97222.80
2019-04-22T09:11:59.954Z,97220.13
2019-04-22T09:14:40.572Z,97223.19
2019-04-22T09:17:17.420Z,97223.23
2019-04-22T09:19:47.722Z,97217.48
2019-04-22T09:22:16.849Z,97199.78
2019-04-22T09:24:54.026Z,97207.84
2019-04-22T09:30:04.970Z,97196.17
2019-04-22T09:32:38.802Z,97194.98
2019-04-22T09:35:10.235Z,97188.70
2019-04-22T09:37:50.290Z,97188.55
2019-04-22T09:40:22.263Z,97184.00
2019-04-22T09:43:02.422Z,97182.41
2019-04-22T09:45:21.721Z,97168.17
2019-04-22T09:48:00.922Z,97174.02
2019-04-22T09:50:52.478Z,97163.75
2019-04-22T09:53:08.061Z,97168.98
2019-04-22T09:55:47.752Z,97168.19
2019-04-22T09:58:16.594Z,97154.12
2019-04-22T10:03:51.668Z,97151.23
2019-04-22T10:09:12.732Z,97137.88
2019-04-22T10:11:32.662Z,97137.75
2019-04-22T10:14:05.594Z,97139.80
2019-04-22T10:21:54.466Z,97129.14
2019-04-22T10:24:19.177Z,97126.94
2019-04-22T10:27:07.231Z,97122.72
2019-04-22T10:29:36.516Z,97120.50
2019-04-22T10:32:05.199Z,97110.08
2019-04-22T10:34:26.284Z,97110.11
2019-04-22T10:36:54.393Z,97103.48
2019-04-22T10:39:35.683Z,97104.16
2019-04-22T10:41:58.884Z,97096.64
2019-04-22T10:44:33.282Z,97096.37
2019-04-22T10:47:06.379Z,97087.69
2019-04-22T10:49:42.442Z,97078.25
2019-04-22T10:52:16.382Z,97076.31
2019-04-22T10:54:49.460Z,97069.43
2019-04-22T10:57:24.000Z,97062.31
2019-04-22T10:59:56.685Z,97060.58
2019-04-22T11:02:29.852Z,97053.22
2019-04-22T11:05:03.979Z,97054.59
2019-04-22T11:07:44.017Z,97046.44
2019-04-22T11:10:29.064Z,97041.95
2019-04-22T11:13:09.178Z,97038.16
2019-04-22T11:15:44.764Z,97039.25
2019-04-22T11:18:19.845Z,97033.52
2019-04-22T11:20:53.515Z,97042.28
2019-04-22T11:23:27.052Z,97033.47
2019-04-22T11:26:01.787Z,97023.28
2019-04-22T11:28:34.006Z,97023.83
2019-04-22T11:31:08.104Z,97020.02
2019-04-22T11:33:40.753Z,97024.77
2019-04-22T11:36:13.565Z,97019.91
2019-04-22T11:38:53.041Z,97020.77
2019-04-22T11:41:23.553Z,97010.77
2019-04-22T11:43:56.934Z,97009.62
2019-04-22T11:46:29.555Z,97008.56
2019-04-22T11:49:03.625Z,97000.09
2019-04-22T11:51:36.114Z,96998.22
2019-04-22T11:54:08.924Z,96992.27
2019-04-22T11:56:42.966Z,96993.33
2019-04-22T11:59:15.716Z,96990.36
2019-04-22T12:01:48.723Z,96995.00
2019-04-22T12:04:22.107Z,96983.95
2019-04-22T12:06:55.890Z,96979.53
2019-04-22T12:09:28.158Z,96957.53
2019-04-22T12:12:00.333Z,96972.12
2019-04-22T12:14:34.080Z,96970.50
2019-04-22T12:17:07.772Z,96965.33
2019-04-22T12:19:42.057Z,96956.59
2019-04-22T12:22:15.400Z,96958.80
2019-04-22T12:24:48.590Z,96950.66
2019-04-22T12:27:22.841Z,96943.80
2019-04-22T12:29:56.771Z,96942.70
2019-04-22T12:32:29.733Z,96932.13
2019-04-22T12:35:02.620Z,96939.72
2019-04-22T12:37:43.544Z,96930.47
2019-04-22T12:40:10.813Z,96926.48
2019-04-22T12:42:45.003Z,96922.01
2019-04-22T12:45:20.471Z,96916.03
2019-04-22T12:47:53.898Z,96907.48
2019-04-22T12:50:31.529Z,96897.39
2019-04-22T12:53:05.429Z,96894.13
2019-04-22T12:55:35.594Z,96888.63
2019-04-22T12:58:09.734Z,96885.52
2019-04-22T13:00:42.776Z,96893.13
2019-04-22T13:03:18.179Z,96885.26
2019-04-22T13:05:51.474Z,96883.14
2019-04-22T13:08:25.576Z,96886.35
2019-04-22T13:11:05.784Z,96883.47
2019-04-22T13:13:34.430Z,96875.77
2019-04-22T13:16:06.963Z,96872.09
2019-04-22T13:18:46.267Z,96863.36
2019-04-22T13:21:14.962Z,96859.88
2019-04-22T13:23:48.713Z,96855.97
2019-04-22T13:26:21.190Z,96853.80
2019-04-22T13:28:54.748Z,96845.66
2019-04-22T13:31:28.678Z,96845.61
2019-04-22T13:34:03.941Z,96838.47
2019-04-22T13:36:40.073Z,96841.50
2019-04-22T13:39:11.624Z,96829.50
2019-04-22T13:41:50.442Z,96827.53
2019-04-22T13:44:19.157Z,96830.67
2019-04-22T13:47:08.165Z,96823.20
2019-04-22T13:49:58.999Z,96818.55
2019-04-22T13:55:22.075Z,96819.20
2019-04-22T13:57:24.866Z,96815.16
2019-04-22T13:59:48.136Z,96810.15
2019-04-22T14:02:44.884Z,96805.78
2019-04-22T14:05:19.572Z,96807.67
2019-04-22T14:07:54.848Z,96801.14
2019-04-22T14:10:26.844Z,96795.20
2019-04-22T14:13:01.646Z,96787.39
2019-04-22T14:15:33.974Z,96791.89
2019-04-22T14:18:07.503Z,96786.45
2019-04-22T14:20:41.096Z,96777.19
2019-04-22T14:23:14.311Z,96784.06
2019-04-22T14:25:48.427Z,96785.66
2019-04-22T14:28:22.974Z,96783.45
2019-04-22T14:30:54.719Z,96787.00
2019-04-22T14:33:27.891Z,96776.18
2019-04-22T14:36:00.542Z,96773.56
2019-04-22T14:38:34.715Z,96764.78
2019-04-22T14:41:08.325Z,96756.28
2019-04-22T14:44:47.229Z,96756.68
2019-04-22T14:46:39.418Z,96748.02
2019-04-22T14:49:16.570Z,96745.70
2019-04-22T14:51:48.804Z,96743.62
2019-04-22T14:54:15.430Z,96739.80
2019-04-22T14:56:34.151Z,96735.05
2019-04-22T14:59:07.120Z,96734.69
2019-04-22T15:01:41.439Z,96731.98
2019-04-22T15:04:15.116Z,96728.19
2019-04-22T15:06:49.890Z,96726.43
2019-04-22T15:09:21.906Z,96725.09
2019-04-22T15:12:08.381Z,96721.63
2019-04-22T15:14:27.756Z,96727.06
2019-04-22T15:17:18.695Z,96722.03
2019-04-22T15:20:05.685Z,96728.03
2019-04-22T15:22:38.887Z,96724.30
2019-04-22T15:25:12.570Z,96727.12
2019-04-22T15:27:45.929Z,96718.86
2019-04-22T15:30:19.394Z,96720.08
2019-04-22T15:32:51.852Z,96724.53
2019-04-22T15:35:25.264Z,96718.02
2019-04-22T15:37:59.010Z,96718.40
2019-04-22T15:40:31.365Z,96714.50
2019-04-22T15:43:04.740Z,96710.70
2019-04-22T15:45:39.091Z,96708.80
2019-04-22T15:48:11.777Z,96710.09
2019-04-22T15:50:44.943Z,96703.38
2019-04-22T15:53:18.034Z,96703.41
2019-04-22T15:55:52.174Z,96704.00
2019-04-22T15:58:25.799Z,96700.26
2019-04-22T16:01:08.777Z,96701.66
2019-04-22T16:03:32.524Z,96701.22
2019-04-22T16:06:05.971Z,96698.36
2019-04-22T16:08:40.973Z,96693.13
2019-04-22T16:11:14.021Z,96697.09
2019-04-22T16:13:48.388Z,96695.81
2019-04-22T16:16:20.965Z,96691.42
2019-04-22T16:18:54.221Z,96687.65
2019-04-22T16:21:38.022Z,96696.17
2019-04-22T16:24:14.066Z,96691.45
2019-04-22T16:26:53.934Z,96686.86
2019-04-22T16:29:27.469Z,96685.08
2019-04-22T16:32:01.081Z,96685.44
2019-04-22T16:34:34.106Z,96686.47
2019-04-22T16:37:07.650Z,96683.22
2019-04-22T16:39:42.048Z,96676.63
2019-04-22T16:42:25.900Z,96678.75
2019-04-22T16:44:49.418Z,96676.11
2019-04-22T16:47:23.656Z,96678.09
2019-04-22T16:49:57.547Z,96674.47
2019-04-22T16:52:30.262Z,96673.73
2019-04-22T16:55:03.473Z,96672.09
2019-04-22T16:57:36.036Z,96676.25
2019-04-22T17:00:11.207Z,96668.97
2019-04-22T17:02:56.012Z,96670.96
2019-04-22T17:06:03.551Z,96663.59
2019-04-22T17:08:37.007Z,96669.71
2019-04-22T17:11:09.930Z,96668.73
2019-04-22T17:13:44.531Z,96667.72
2019-04-22T17:16:18.010Z,96663.89
2019-04-22T17:18:52.104Z,96666.47
2019-04-22T17:21:25.847Z,96663.75
2019-04-22T17:23:59.407Z,96670.02
2019-04-22T17:26:32.651Z,96666.78
2019-04-22T17:29:06.471Z,96675.30
2019-04-22T17:31:40.881Z,96674.23
2019-04-22T17:34:13.804Z,96670.27
2019-04-22T17:36:46.885Z,96672.95
2019-04-22T17:39:31.501Z,96676.95
2019-04-22T17:42:12.577Z,96671.95
2019-04-22T17:44:58.844Z,96674.56
2019-04-22T17:47:34.951Z,96672.02
2019-04-22T17:50:22.982Z,96673.02
2019-04-22T17:53:03.569Z,96684.33
2019-04-22T17:55:32.203Z,96683.58
2019-04-22T17:58:05.750Z,96682.62
2019-04-22T18:00:32.241Z,96691.55
2019-04-22T18:03:03.081Z,96694.90
2019-04-22T18:05:34.743Z,96688.98
2019-04-22T18:08:20.433Z,96690.78
2019-04-22T18:10:56.099Z,96693.45
2019-04-22T18:13:33.398Z,96691.14
2019-04-22T18:16:03.940Z,96692.67
2019-04-22T18:18:37.400Z,96691.78
2019-04-22T18:21:06.353Z,96697.65
2019-04-22T18:23:30.372Z,96700.37
2019-04-22T18:26:18.853Z,96701.45
2019-04-22T18:28:55.942Z,96703.34
2019-04-22T18:31:21.737Z,96707.39
2019-04-22T18:33:55.607Z,96710.67
2019-04-22T18:36:34.552Z,96714.01
2019-04-22T18:39:10.064Z,96721.16
2019-04-22T18:41:40.632Z,96719.64
2019-04-22T18:44:19.832Z,96716.48
2019-04-22T18:46:50.941Z,96720.88
2019-04-22T18:49:22.951Z,96722.98
2019-04-22T18:52:27.104Z,96729.08
2019-04-22T18:55:20.286Z,96728.70
2019-04-22T18:58:02.689Z,96735.44
2019-04-22T19:00:25.470Z,96736.22
2019-04-22T19:03:07.201Z,96730.00
2019-04-22T19:06:02.364Z,96735.48
2019-04-22T19:08:44.839Z,96738.47
2019-04-22T19:11:08.470Z,96726.66
2019-04-22T19:16:27.872Z,96739.32
2019-04-22T19:19:17.220Z,96730.92
2019-04-22T19:21:19.405Z,96732.33
2019-04-22T19:23:54.484Z,96737.34
2019-04-22T19:26:43.645Z,96742.92
2019-04-22T19:29:00.385Z,96734.58
2019-04-22T19:31:43.821Z,96737.33
2019-04-22T19:34:17.786Z,96741.79
2019-04-22T19:36:48.576Z,96741.17
2019-04-22T19:39:18.248Z,96739.13
2019-04-22T19:42:00.908Z,96737.64
2019-04-22T19:44:36.334Z,96735.49
2019-04-22T19:47:19.638Z,96744.94
2019-04-22T19:49:49.050Z,96740.81
2019-04-22T19:52:19.438Z,96736.65
2019-04-22T19:54:47.791Z,96736.39
2019-04-22T19:57:17.375Z,96745.80
2019-04-22T19:59:57.427Z,96739.05
2019-04-22T20:03:12.847Z,96735.48
2019-04-22T20:05:55.633Z,96725.93
2019-04-22T20:08:26.408Z,96735.72
2019-04-22T20:10:59.216Z,96728.47
2019-04-22T20:13:36.455Z,96735.00
2019-04-22T20:15:57.494Z,96730.35
2019-04-22T20:18:47.711Z,96735.32
2019-04-22T20:21:17.918Z,96729.97
2019-04-22T20:23:39.692Z,96729.56
2019-04-22T20:26:16.175Z,96729.27
2019-04-22T20:28:54.631Z,96725.25
2019-04-22T20:31:30.617Z,96730.46
2019-04-22T20:34:12.363Z,96724.17
2019-04-22T20:39:07.830Z,96720.97
2019-04-22T20:41:43.327Z,96725.06
2019-04-22T20:44:25.552Z,96731.71
2019-04-22T20:46:52.134Z,96722.17
2019-04-22T20:49:30.838Z,96715.71
2019-04-22T20:52:06.385Z,96707.95
2019-04-22T20:54:39.956Z,96708.09
2019-04-22T20:57:10.888Z,96706.02
2019-04-22T20:59:49.847Z,96713.13
2019-04-22T21:02:18.199Z,96700.87
2019-04-22T21:04:47.730Z,96707.82
2019-04-22T21:07:26.672Z,96713.78
2019-04-22T21:10:01.102Z,96717.83
2019-04-22T21:12:31.535Z,96710.27
2019-04-22T21:15:19.441Z,96712.55
2019-04-22T21:17:45.841Z,96706.91
2019-04-22T21:20:28.658Z,96710.30
2019-04-22T21:22:58.809Z,96697.70
2019-04-22T21:25:23.981Z,96707.87
2019-04-22T21:28:06.567Z,96704.00
2019-04-22T21:30:37.577Z,96709.18
2019-04-22T21:33:10.587Z,96701.27
2019-04-22T21:35:59.483Z,96692.85
2019-04-22T21:38:28.056Z,96698.84
2019-04-22T21:40:58.323Z,96699.97
2019-04-22T21:43:28.852Z,96694.47
2019-04-22T21:46:10.487Z,96685.13
2019-04-22T21:48:44.363Z,96678.02
2019-04-22T21:51:19.161Z,96675.61
2019-04-22T21:56:34.912Z,96669.77
2019-04-22T21:59:02.118Z,96663.33
2019-04-22T22:01:49.635Z,96660.77
2019-04-22T22:04:18.922Z,96655.91
2019-04-22T22:06:40.308Z,96646.69
2019-04-22T22:09:26.720Z,96646.54
2019-04-22T22:11:55.483Z,96633.91
2019-04-22T22:14:27.590Z,96639.72
2019-04-22T22:16:56.263Z,96633.30
2019-04-22T22:19:39.682Z,96634.41
2019-04-22T22:22:28.076Z,96627.29
2019-04-22T22:24:49.848Z,96627.80
2019-04-22T22:27:18.764Z,96627.13
2019-04-22T22:32:30.450Z,96613.09
2019-04-22T22:35:03.852Z,96607.11
2019-04-22T22:37:23.440Z,96606.32
2019-04-22T22:39:57.673Z,96605.51
2019-04-22T22:42:31.120Z,96600.20
2019-04-22T22:45:07.813Z,96604.25
2019-04-22T22:48:00.544Z,96594.39
2019-04-22T22:50:28.353Z,96596.17
2019-04-22T22:55:37.200Z,96589.70
2019-04-22T22:58:14.180Z,96587.77
2019-04-22T23:00:39.452Z,96587.94
2019-04-22T23:03:40.242Z,96585.53
2019-04-22T23:06:12.767Z,96574.06
2019-04-22T23:08:26.235Z,96582.45
2019-04-22T23:11:07.753Z,96581.66
2019-04-22T23:13:37.278Z,96572.78
2019-04-22T23:16:00.847Z,96570.19
2019-04-22T23:18:21.713Z,96564.20
2019-04-22T23:20:55.761Z,96560.33
2019-04-22T23:23:43.886Z,96560.97
2019-04-22T23:26:43.927Z,96553.08
2019-04-22T23:29:15.796Z,96555.02
2019-04-22T23:31:48.096Z,96547.45
2019-04-22T23:34:24.967Z,96546.16
2019-04-22T23:37:28.994Z,96546.80
2019-04-22T23:40:16.210Z,96545.52
2019-04-22T23:42:44.821Z,96542.13
2019-04-22T23:45:22.589Z,96539.20
2019-04-22T23:47:41.137Z,96538.41
2019-04-22T23:50:26.112Z,96532.46
2019-04-22T23:52:58.749Z,96526.95
2019-04-22T23:55:37.016Z,96528.42
2019-04-22T23:58:11.123Z,96524.54
